Aviation Digital Data Service (ADDS)

Output produced by METARs form (1024 UTC 05 August 2015)
found at http://aviationweather.gov/adds/metars/
 
KLCH 050520Z 0506/0606 VRB05KT P6SM SKC 
     FM052000 21010KT P6SM SCT050 
     FM060200 VRB05KT P6SM SCT250